sensor_id;sensor_type;location;lat;lon;timestamp;P1;durP1;ratioP1;P2;durP2;ratioP2
47599;SDS011;33323;52.124;6.018;2024-03-08T00:00:10;32.42;;;14.77;;
47599;SDS011;33323;52.124;6.018;2024-03-08T00:02:41;36.03;;;17.38;;
47599;SDS011;33323;52.124;6.018;2024-03-08T00:05:09;43.63;;;19.00;;
47599;SDS011;33323;52.124;6.018;2024-03-08T00:07:40;31.45;;;15.20;;
47599;SDS011;33323;52.124;6.018;2024-03-08T00:10:08;37.22;;;17.35;;
47599;SDS011;33323;52.124;6.018;2024-03-08T00:12:40;35.42;;;17.42;;
47599;SDS011;33323;52.124;6.018;2024-03-08T00:15:12;41.65;;;17.58;;
47599;SDS011;33323;52.124;6.018;2024-03-08T00:17:43;36.22;;;16.60;;
47599;SDS011;33323;52.124;6.018;2024-03-08T00:20:11;36.38;;;17.00;;
47599;SDS011;33323;52.124;6.018;2024-03-08T00:22:40;37.20;;;20.10;;
47599;SDS011;33323;52.124;6.018;2024-03-08T00:25:07;37.50;;;15.90;;
47599;SDS011;33323;52.124;6.018;2024-03-08T00:27:41;40.72;;;19.00;;
47599;SDS011;33323;52.124;6.018;2024-03-08T00:30:08;37.63;;;17.77;;
47599;SDS011;33323;52.124;6.018;2024-03-08T00:32:37;43.97;;;18.95;;
47599;SDS011;33323;52.124;6.018;2024-03-08T00:35:04;34.80;;;15.75;;
47599;SDS011;33323;52.124;6.018;2024-03-08T00:37:34;35.83;;;17.73;;
47599;SDS011;33323;52.124;6.018;2024-03-08T00:40:01;38.60;;;17.42;;
47599;SDS011;33323;52.124;6.018;2024-03-08T00:42:29;46.90;;;18.50;;
47599;SDS011;33323;52.124;6.018;2024-03-08T00:44:56;35.42;;;17.88;;
47599;SDS011;33323;52.124;6.018;2024-03-08T00:47:25;39.10;;;19.15;;
47599;SDS011;33323;52.124;6.018;2024-03-08T00:49:52;41.83;;;18.40;;
47599;SDS011;33323;52.124;6.018;2024-03-08T00:52:19;41.85;;;19.00;;
47599;SDS011;33323;52.124;6.018;2024-03-08T00:54:46;35.35;;;18.05;;
47599;SDS011;33323;52.124;6.018;2024-03-08T00:57:13;41.08;;;17.73;;
47599;SDS011;33323;52.124;6.018;2024-03-08T00:59:40;40.95;;;16.38;;
47599;SDS011;33323;52.124;6.018;2024-03-08T01:02:08;34.47;;;17.02;;
47599;SDS011;33323;52.124;6.018;2024-03-08T01:04:37;36.45;;;18.10;;
47599;SDS011;33323;52.124;6.018;2024-03-08T01:07:04;36.38;;;16.50;;
47599;SDS011;33323;52.124;6.018;2024-03-08T01:09:32;37.15;;;17.05;;
47599;SDS011;33323;52.124;6.018;2024-03-08T01:11:59;36.33;;;15.80;;
47599;SDS011;33323;52.124;6.018;2024-03-08T01:14:26;35.42;;;15.93;;
47599;SDS011;33323;52.124;6.018;2024-03-08T01:16:55;37.15;;;16.92;;
47599;SDS011;33323;52.124;6.018;2024-03-08T01:19:22;35.10;;;16.58;;
47599;SDS011;33323;52.124;6.018;2024-03-08T01:21:50;38.05;;;17.20;;
47599;SDS011;33323;52.124;6.018;2024-03-08T01:24:17;38.05;;;17.05;;
47599;SDS011;33323;52.124;6.018;2024-03-08T01:26:44;31.58;;;14.77;;
47599;SDS011;33323;52.124;6.018;2024-03-08T01:29:11;38.65;;;19.00;;
47599;SDS011;33323;52.124;6.018;2024-03-08T01:31:38;35.70;;;16.23;;
47599;SDS011;33323;52.124;6.018;2024-03-08T01:34:06;31.42;;;15.68;;
47599;SDS011;33323;52.124;6.018;2024-03-08T01:36:33;27.65;;;14.38;;
47599;SDS011;33323;52.124;6.018;2024-03-08T01:38:59;32.47;;;15.00;;
47599;SDS011;33323;52.124;6.018;2024-03-08T01:41:27;30.67;;;13.05;;
47599;SDS011;33323;52.124;6.018;2024-03-08T01:43:56;30.83;;;14.75;;
47599;SDS011;33323;52.124;6.018;2024-03-08T01:46:23;30.05;;;13.98;;
47599;SDS011;33323;52.124;6.018;2024-03-08T01:48:50;28.92;;;12.93;;
47599;SDS011;33323;52.124;6.018;2024-03-08T01:51:18;27.63;;;13.80;;
47599;SDS011;33323;52.124;6.018;2024-03-08T01:53:46;27.63;;;12.52;;
47599;SDS011;33323;52.124;6.018;2024-03-08T01:56:14;27.52;;;12.10;;
47599;SDS011;33323;52.124;6.018;2024-03-08T01:58:42;30.17;;;12.65;;
47599;SDS011;33323;52.124;6.018;2024-03-08T02:01:13;31.23;;;13.65;;
47599;SDS011;33323;52.124;6.018;2024-03-08T02:03:42;29.83;;;13.82;;
47599;SDS011;33323;52.124;6.018;2024-03-08T02:06:11;26.73;;;13.05;;
47599;SDS011;33323;52.124;6.018;2024-03-08T02:08:41;30.48;;;13.73;;
47599;SDS011;33323;52.124;6.018;2024-03-08T02:11:13;28.05;;;13.77;;
47599;SDS011;33323;52.124;6.018;2024-03-08T02:13:41;22.95;;;11.88;;
47599;SDS011;33323;52.124;6.018;2024-03-08T02:16:09;27.52;;;12.90;;
47599;SDS011;33323;52.124;6.018;2024-03-08T02:18:36;27.23;;;13.05;;
47599;SDS011;33323;52.124;6.018;2024-03-08T02:21:06;24.27;;;13.32;;
47599;SDS011;33323;52.124;6.018;2024-03-08T02:23:35;29.55;;;12.30;;
47599;SDS011;33323;52.124;6.018;2024-03-08T02:26:03;24.15;;;13.40;;
47599;SDS011;33323;52.124;6.018;2024-03-08T02:28:31;32.10;;;13.80;;
47599;SDS011;33323;52.124;6.018;2024-03-08T02:30:58;33.78;;;14.73;;
47599;SDS011;33323;52.124;6.018;2024-03-08T02:33:26;36.10;;;14.95;;
47599;SDS011;33323;52.124;6.018;2024-03-08T02:35:55;37.20;;;15.30;;
47599;SDS011;33323;52.124;6.018;2024-03-08T02:38:23;34.50;;;13.43;;
47599;SDS011;33323;52.124;6.018;2024-03-08T02:40:51;31.23;;;12.45;;
47599;SDS011;33323;52.124;6.018;2024-03-08T02:43:20;33.90;;;13.65;;
47599;SDS011;33323;52.124;6.018;2024-03-08T02:45:51;31.17;;;13.35;;
47599;SDS011;33323;52.124;6.018;2024-03-08T02:48:21;30.35;;;14.38;;
47599;SDS011;33323;52.124;6.018;2024-03-08T02:50:49;28.88;;;13.95;;
47599;SDS011;33323;52.124;6.018;2024-03-08T02:53:18;32.97;;;14.35;;
47599;SDS011;33323;52.124;6.018;2024-03-08T02:55:49;28.90;;;15.35;;
47599;SDS011;33323;52.124;6.018;2024-03-08T02:58:16;25.95;;;14.30;;
47599;SDS011;33323;52.124;6.018;2024-03-08T03:00:43;27.00;;;15.15;;
47599;SDS011;33323;52.124;6.018;2024-03-08T03:03:11;26.95;;;14.25;;
47599;SDS011;33323;52.124;6.018;2024-03-08T03:05:38;24.95;;;13.63;;
47599;SDS011;33323;52.124;6.018;2024-03-08T03:08:12;31.02;;;14.15;;
47599;SDS011;33323;52.124;6.018;2024-03-08T03:10:39;30.63;;;14.43;;
47599;SDS011;33323;52.124;6.018;2024-03-08T03:13:07;27.20;;;14.02;;
47599;SDS011;33323;52.124;6.018;2024-03-08T03:15:35;30.90;;;13.35;;
47599;SDS011;33323;52.124;6.018;2024-03-08T03:18:03;28.92;;;13.80;;
47599;SDS011;33323;52.124;6.018;2024-03-08T03:20:34;24.63;;;13.30;;
47599;SDS011;33323;52.124;6.018;2024-03-08T03:23:08;30.90;;;15.65;;
47599;SDS011;33323;52.124;6.018;2024-03-08T03:25:35;28.48;;;14.00;;
47599;SDS011;33323;52.124;6.018;2024-03-08T03:28:05;28.35;;;12.48;;
47599;SDS011;33323;52.124;6.018;2024-03-08T03:30:34;28.23;;;12.30;;
47599;SDS011;33323;52.124;6.018;2024-03-08T03:33:02;25.98;;;13.40;;
47599;SDS011;33323;52.124;6.018;2024-03-08T03:35:36;27.27;;;13.48;;
47599;SDS011;33323;52.124;6.018;2024-03-08T03:38:04;30.02;;;14.38;;
47599;SDS011;33323;52.124;6.018;2024-03-08T03:40:37;28.55;;;14.15;;
47599;SDS011;33323;52.124;6.018;2024-03-08T03:43:06;25.92;;;14.30;;
47599;SDS011;33323;52.124;6.018;2024-03-08T03:45:34;27.45;;;13.85;;
47599;SDS011;33323;52.124;6.018;2024-03-08T03:48:06;27.38;;;13.82;;
47599;SDS011;33323;52.124;6.018;2024-03-08T03:50:38;28.92;;;15.00;;
47599;SDS011;33323;52.124;6.018;2024-03-08T03:53:06;32.28;;;14.70;;
47599;SDS011;33323;52.124;6.018;2024-03-08T03:55:34;31.10;;;13.38;;
47599;SDS011;33323;52.124;6.018;2024-03-08T03:58:03;35.25;;;14.65;;
47599;SDS011;33323;52.124;6.018;2024-03-08T04:00:30;26.20;;;13.23;;
47599;SDS011;33323;52.124;6.018;2024-03-08T04:02:58;27.08;;;12.93;;
47599;SDS011;33323;52.124;6.018;2024-03-08T04:05:27;34.63;;;13.95;;
47599;SDS011;33323;52.124;6.018;2024-03-08T04:07:54;26.48;;;13.45;;
47599;SDS011;33323;52.124;6.018;2024-03-08T04:10:21;25.60;;;13.70;;
47599;SDS011;33323;52.124;6.018;2024-03-08T04:12:48;26.92;;;13.48;;
47599;SDS011;33323;52.124;6.018;2024-03-08T04:15:15;29.38;;;13.35;;
47599;SDS011;33323;52.124;6.018;2024-03-08T04:17:42;29.23;;;15.32;;
47599;SDS011;33323;52.124;6.018;2024-03-08T04:20:12;30.77;;;14.13;;
47599;SDS011;33323;52.124;6.018;2024-03-08T04:22:41;30.08;;;14.95;;
47599;SDS011;33323;52.124;6.018;2024-03-08T04:25:08;35.75;;;15.40;;
47599;SDS011;33323;52.124;6.018;2024-03-08T04:27:36;32.33;;;15.75;;
47599;SDS011;33323;52.124;6.018;2024-03-08T04:30:03;28.15;;;14.65;;
47599;SDS011;33323;52.124;6.018;2024-03-08T04:32:34;25.95;;;12.38;;
47599;SDS011;33323;52.124;6.018;2024-03-08T04:35:02;24.20;;;13.48;;
47599;SDS011;33323;52.124;6.018;2024-03-08T04:37:30;26.15;;;14.23;;
47599;SDS011;33323;52.124;6.018;2024-03-08T04:39:57;31.48;;;14.35;;
47599;SDS011;33323;52.124;6.018;2024-03-08T04:42:25;28.42;;;13.65;;
47599;SDS011;33323;52.124;6.018;2024-03-08T04:44:53;26.52;;;12.90;;
47599;SDS011;33323;52.124;6.018;2024-03-08T04:47:20;35.63;;;15.68;;
47599;SDS011;33323;52.124;6.018;2024-03-08T04:49:48;29.13;;;14.20;;
47599;SDS011;33323;52.124;6.018;2024-03-08T04:52:16;31.90;;;14.50;;
47599;SDS011;33323;52.124;6.018;2024-03-08T04:54:43;30.83;;;14.85;;
47599;SDS011;33323;52.124;6.018;2024-03-08T04:57:11;29.00;;;16.05;;
47599;SDS011;33323;52.124;6.018;2024-03-08T04:59:38;35.97;;;17.15;;
47599;SDS011;33323;52.124;6.018;2024-03-08T05:02:06;28.80;;;15.00;;
47599;SDS011;33323;52.124;6.018;2024-03-08T05:04:33;31.58;;;15.55;;
47599;SDS011;33323;52.124;6.018;2024-03-08T05:07:01;28.45;;;14.38;;
47599;SDS011;33323;52.124;6.018;2024-03-08T05:09:29;27.05;;;15.25;;
47599;SDS011;33323;52.124;6.018;2024-03-08T05:11:58;28.77;;;13.93;;
47599;SDS011;33323;52.124;6.018;2024-03-08T05:14:25;33.83;;;16.38;;
47599;SDS011;33323;52.124;6.018;2024-03-08T05:16:52;30.52;;;15.27;;
47599;SDS011;33323;52.124;6.018;2024-03-08T05:19:20;25.95;;;13.95;;
47599;SDS011;33323;52.124;6.018;2024-03-08T05:21:48;27.65;;;13.98;;
47599;SDS011;33323;52.124;6.018;2024-03-08T05:24:16;31.70;;;14.15;;
47599;SDS011;33323;52.124;6.018;2024-03-08T05:26:45;27.92;;;14.63;;
47599;SDS011;33323;52.124;6.018;2024-03-08T05:29:14;29.65;;;14.88;;
47599;SDS011;33323;52.124;6.018;2024-03-08T05:31:50;28.48;;;14.45;;
47599;SDS011;33323;52.124;6.018;2024-03-08T05:34:21;30.75;;;14.02;;
47599;SDS011;33323;52.124;6.018;2024-03-08T05:36:49;27.52;;;14.90;;
47599;SDS011;33323;52.124;6.018;2024-03-08T05:39:17;25.70;;;12.75;;
47599;SDS011;33323;52.124;6.018;2024-03-08T05:41:46;23.80;;;13.45;;
47599;SDS011;33323;52.124;6.018;2024-03-08T05:44:13;24.98;;;12.40;;
47599;SDS011;33323;52.124;6.018;2024-03-08T05:46:40;27.13;;;13.57;;
47599;SDS011;33323;52.124;6.018;2024-03-08T05:49:07;27.35;;;14.80;;
47599;SDS011;33323;52.124;6.018;2024-03-08T05:51:38;27.45;;;12.88;;
47599;SDS011;33323;52.124;6.018;2024-03-08T05:54:06;27.35;;;13.35;;
47599;SDS011;33323;52.124;6.018;2024-03-08T05:56:42;26.70;;;14.07;;
47599;SDS011;33323;52.124;6.018;2024-03-08T05:59:11;23.77;;;13.02;;
47599;SDS011;33323;52.124;6.018;2024-03-08T06:01:40;26.95;;;14.48;;
47599;SDS011;33323;52.124;6.018;2024-03-08T06:04:09;27.77;;;14.55;;
47599;SDS011;33323;52.124;6.018;2024-03-08T06:06:38;27.05;;;13.15;;
47599;SDS011;33323;52.124;6.018;2024-03-08T06:09:07;26.80;;;13.63;;
47599;SDS011;33323;52.124;6.018;2024-03-08T06:11:41;29.15;;;14.75;;
47599;SDS011;33323;52.124;6.018;2024-03-08T06:14:09;28.58;;;14.85;;
47599;SDS011;33323;52.124;6.018;2024-03-08T06:16:36;29.83;;;15.13;;
47599;SDS011;33323;52.124;6.018;2024-03-08T06:19:05;27.20;;;13.15;;
47599;SDS011;33323;52.124;6.018;2024-03-08T06:21:32;27.63;;;14.02;;
47599;SDS011;33323;52.124;6.018;2024-03-08T06:24:00;31.13;;;14.70;;
47599;SDS011;33323;52.124;6.018;2024-03-08T06:26:28;28.35;;;15.10;;
47599;SDS011;33323;52.124;6.018;2024-03-08T06:28:57;24.60;;;13.05;;
47599;SDS011;33323;52.124;6.018;2024-03-08T06:31:25;29.35;;;15.07;;
47599;SDS011;33323;52.124;6.018;2024-03-08T06:33:53;27.15;;;14.70;;
47599;SDS011;33323;52.124;6.018;2024-03-08T06:36:25;32.40;;;14.32;;
47599;SDS011;33323;52.124;6.018;2024-03-08T06:38:55;32.15;;;16.23;;
47599;SDS011;33323;52.124;6.018;2024-03-08T06:41:23;34.63;;;15.88;;
47599;SDS011;33323;52.124;6.018;2024-03-08T06:43:51;29.85;;;15.48;;
47599;SDS011;33323;52.124;6.018;2024-03-08T06:46:18;36.63;;;16.20;;
47599;SDS011;33323;52.124;6.018;2024-03-08T06:48:47;41.88;;;19.25;;
47599;SDS011;33323;52.124;6.018;2024-03-08T06:51:17;35.95;;;18.35;;
47599;SDS011;33323;52.124;6.018;2024-03-08T06:53:45;35.28;;;16.83;;
47599;SDS011;33323;52.124;6.018;2024-03-08T06:56:13;34.78;;;18.70;;
47599;SDS011;33323;52.124;6.018;2024-03-08T06:58:40;37.60;;;18.85;;
47599;SDS011;33323;52.124;6.018;2024-03-08T07:01:08;37.78;;;19.73;;
47599;SDS011;33323;52.124;6.018;2024-03-08T07:03:41;44.17;;;20.83;;
47599;SDS011;33323;52.124;6.018;2024-03-08T07:06:11;40.13;;;20.80;;
47599;SDS011;33323;52.124;6.018;2024-03-08T07:08:39;50.65;;;23.02;;
47599;SDS011;33323;52.124;6.018;2024-03-08T07:11:07;46.75;;;23.73;;
47599;SDS011;33323;52.124;6.018;2024-03-08T07:13:34;46.13;;;22.73;;
47599;SDS011;33323;52.124;6.018;2024-03-08T07:16:01;43.83;;;23.80;;
47599;SDS011;33323;52.124;6.018;2024-03-08T07:18:29;47.28;;;23.30;;
47599;SDS011;33323;52.124;6.018;2024-03-08T07:20:57;47.17;;;23.17;;
47599;SDS011;33323;52.124;6.018;2024-03-08T07:23:25;53.88;;;24.67;;
47599;SDS011;33323;52.124;6.018;2024-03-08T07:26:15;51.13;;;24.30;;
47599;SDS011;33323;52.124;6.018;2024-03-08T07:28:43;42.97;;;22.50;;
47599;SDS011;33323;52.124;6.018;2024-03-08T07:31:11;55.40;;;25.13;;
47599;SDS011;33323;52.124;6.018;2024-03-08T07:33:38;50.38;;;24.40;;
47599;SDS011;33323;52.124;6.018;2024-03-08T07:36:07;48.65;;;23.48;;
47599;SDS011;33323;52.124;6.018;2024-03-08T07:38:35;45.10;;;24.08;;
47599;SDS011;33323;52.124;6.018;2024-03-08T07:41:02;47.88;;;21.35;;
47599;SDS011;33323;52.124;6.018;2024-03-08T07:43:31;45.70;;;23.73;;
47599;SDS011;33323;52.124;6.018;2024-03-08T07:45:59;43.85;;;24.35;;
47599;SDS011;33323;52.124;6.018;2024-03-08T07:48:27;42.42;;;22.52;;
47599;SDS011;33323;52.124;6.018;2024-03-08T07:50:55;43.97;;;22.75;;
47599;SDS011;33323;52.124;6.018;2024-03-08T07:53:23;44.22;;;22.13;;
47599;SDS011;33323;52.124;6.018;2024-03-08T07:55:51;46.38;;;21.88;;
47599;SDS011;33323;52.124;6.018;2024-03-08T07:58:19;40.80;;;21.15;;
47599;SDS011;33323;52.124;6.018;2024-03-08T08:00:47;38.80;;;21.75;;
47599;SDS011;33323;52.124;6.018;2024-03-08T08:03:15;43.70;;;22.33;;
47599;SDS011;33323;52.124;6.018;2024-03-08T08:05:47;38.20;;;20.73;;
47599;SDS011;33323;52.124;6.018;2024-03-08T08:08:15;36.80;;;21.80;;
47599;SDS011;33323;52.124;6.018;2024-03-08T08:10:43;39.58;;;22.13;;
47599;SDS011;33323;52.124;6.018;2024-03-08T08:13:10;38.88;;;21.23;;
47599;SDS011;33323;52.124;6.018;2024-03-08T08:15:37;39.88;;;20.48;;
47599;SDS011;33323;52.124;6.018;2024-03-08T08:18:05;42.35;;;21.48;;
47599;SDS011;33323;52.124;6.018;2024-03-08T08:20:33;38.80;;;21.45;;
47599;SDS011;33323;52.124;6.018;2024-03-08T08:23:03;47.67;;;22.25;;
47599;SDS011;33323;52.124;6.018;2024-03-08T08:25:30;40.28;;;20.85;;
47599;SDS011;33323;52.124;6.018;2024-03-08T08:27:58;41.75;;;22.65;;
47599;SDS011;33323;52.124;6.018;2024-03-08T08:30:26;36.58;;;19.33;;
47599;SDS011;33323;52.124;6.018;2024-03-08T08:32:54;36.75;;;19.13;;
47599;SDS011;33323;52.124;6.018;2024-03-08T08:35:25;40.75;;;20.95;;
47599;SDS011;33323;52.124;6.018;2024-03-08T08:37:52;37.95;;;19.42;;
47599;SDS011;33323;52.124;6.018;2024-03-08T08:40:20;47.28;;;22.63;;
47599;SDS011;33323;52.124;6.018;2024-03-08T08:42:49;40.22;;;21.15;;
47599;SDS011;33323;52.124;6.018;2024-03-08T08:45:16;40.30;;;21.60;;
47599;SDS011;33323;52.124;6.018;2024-03-08T08:47:51;33.33;;;19.00;;
47599;SDS011;33323;52.124;6.018;2024-03-08T08:50:21;39.95;;;20.20;;
47599;SDS011;33323;52.124;6.018;2024-03-08T08:52:50;38.15;;;19.98;;
47599;SDS011;33323;52.124;6.018;2024-03-08T08:55:18;35.67;;;19.45;;
47599;SDS011;33323;52.124;6.018;2024-03-08T08:57:53;39.90;;;20.88;;
47599;SDS011;33323;52.124;6.018;2024-03-08T09:00:21;38.22;;;22.08;;
47599;SDS011;33323;52.124;6.018;2024-03-08T09:02:54;38.85;;;21.73;;
47599;SDS011;33323;52.124;6.018;2024-03-08T09:05:25;37.70;;;19.15;;
47599;SDS011;33323;52.124;6.018;2024-03-08T09:07:54;34.78;;;19.35;;
47599;SDS011;33323;52.124;6.018;2024-03-08T09:10:22;38.03;;;19.35;;
47599;SDS011;33323;52.124;6.018;2024-03-08T09:12:56;34.22;;;17.98;;
47599;SDS011;33323;52.124;6.018;2024-03-08T09:15:24;35.05;;;20.55;;
47599;SDS011;33323;52.124;6.018;2024-03-08T09:17:56;36.67;;;18.55;;
47599;SDS011;33323;52.124;6.018;2024-03-08T09:20:23;32.65;;;17.73;;
47599;SDS011;33323;52.124;6.018;2024-03-08T09:22:52;37.13;;;19.02;;
47599;SDS011;33323;52.124;6.018;2024-03-08T09:25:20;34.13;;;17.88;;
47599;SDS011;33323;52.124;6.018;2024-03-08T09:27:49;34.05;;;17.65;;
47599;SDS011;33323;52.124;6.018;2024-03-08T09:30:17;31.95;;;18.60;;
47599;SDS011;33323;52.124;6.018;2024-03-08T09:32:44;28.58;;;17.83;;
47599;SDS011;33323;52.124;6.018;2024-03-08T09:35:13;31.15;;;17.83;;
47599;SDS011;33323;52.124;6.018;2024-03-08T09:37:42;35.83;;;19.92;;
47599;SDS011;33323;52.124;6.018;2024-03-08T09:40:10;35.78;;;18.40;;
47599;SDS011;33323;52.124;6.018;2024-03-08T09:42:42;33.40;;;17.15;;
47599;SDS011;33323;52.124;6.018;2024-03-08T09:45:10;30.17;;;17.92;;
47599;SDS011;33323;52.124;6.018;2024-03-08T09:47:47;28.80;;;16.33;;
47599;SDS011;33323;52.124;6.018;2024-03-08T09:50:18;31.38;;;17.23;;
47599;SDS011;33323;52.124;6.018;2024-03-08T09:52:46;29.58;;;17.35;;
47599;SDS011;33323;52.124;6.018;2024-03-08T09:55:16;29.08;;;16.20;;
47599;SDS011;33323;52.124;6.018;2024-03-08T09:57:50;28.40;;;17.20;;
47599;SDS011;33323;52.124;6.018;2024-03-08T10:00:37;36.10;;;16.33;;
47599;SDS011;33323;52.124;6.018;2024-03-08T10:03:05;27.08;;;16.55;;
47599;SDS011;33323;52.124;6.018;2024-03-08T10:05:33;27.15;;;15.57;;
47599;SDS011;33323;52.124;6.018;2024-03-08T10:08:01;28.55;;;17.25;;
47599;SDS011;33323;52.124;6.018;2024-03-08T10:10:33;33.67;;;19.02;;
47599;SDS011;33323;52.124;6.018;2024-03-08T10:13:02;25.00;;;16.00;;
47599;SDS011;33323;52.124;6.018;2024-03-08T10:15:33;31.95;;;16.63;;
47599;SDS011;33323;52.124;6.018;2024-03-08T10:18:01;29.52;;;17.80;;
47599;SDS011;33323;52.124;6.018;2024-03-08T10:20:32;30.10;;;17.75;;
47599;SDS011;33323;52.124;6.018;2024-03-08T10:23:00;38.45;;;16.85;;
47599;SDS011;33323;52.124;6.018;2024-03-08T10:25:37;25.73;;;15.00;;
47599;SDS011;33323;52.124;6.018;2024-03-08T10:28:05;25.83;;;14.95;;
47599;SDS011;33323;52.124;6.018;2024-03-08T10:30:33;25.05;;;15.95;;
47599;SDS011;33323;52.124;6.018;2024-03-08T10:33:01;27.40;;;17.17;;
47599;SDS011;33323;52.124;6.018;2024-03-08T10:35:32;27.25;;;14.60;;
47599;SDS011;33323;52.124;6.018;2024-03-08T10:38:00;25.35;;;14.73;;
47599;SDS011;33323;52.124;6.018;2024-03-08T10:40:35;28.60;;;15.80;;
47599;SDS011;33323;52.124;6.018;2024-03-08T10:43:06;27.50;;;15.20;;
47599;SDS011;33323;52.124;6.018;2024-03-08T10:45:58;26.80;;;15.13;;
47599;SDS011;33323;52.124;6.018;2024-03-08T10:48:49;27.17;;;16.42;;
47599;SDS011;33323;52.124;6.018;2024-03-08T10:51:23;26.27;;;15.00;;
47599;SDS011;33323;52.124;6.018;2024-03-08T10:53:52;25.40;;;15.77;;
47599;SDS011;33323;52.124;6.018;2024-03-08T10:56:23;23.83;;;14.45;;
47599;SDS011;33323;52.124;6.018;2024-03-08T10:58:54;21.80;;;13.02;;
47599;SDS011;33323;52.124;6.018;2024-03-08T11:01:22;26.67;;;16.25;;
47599;SDS011;33323;52.124;6.018;2024-03-08T11:03:53;27.10;;;15.50;;
47599;SDS011;33323;52.124;6.018;2024-03-08T11:06:57;22.05;;;13.20;;
47599;SDS011;33323;52.124;6.018;2024-03-08T11:09:31;28.23;;;15.13;;
47599;SDS011;33323;52.124;6.018;2024-03-08T11:12:20;27.63;;;14.50;;
47599;SDS011;33323;52.124;6.018;2024-03-08T11:15:15;24.02;;;13.57;;
47599;SDS011;33323;52.124;6.018;2024-03-08T11:17:49;22.23;;;14.25;;
47599;SDS011;33323;52.124;6.018;2024-03-08T11:20:18;26.13;;;14.07;;
47599;SDS011;33323;52.124;6.018;2024-03-08T11:22:51;25.50;;;13.85;;
47599;SDS011;33323;52.124;6.018;2024-03-08T11:25:37;22.33;;;13.15;;
47599;SDS011;33323;52.124;6.018;2024-03-08T11:31:32;22.40;;;14.43;;
47599;SDS011;33323;52.124;6.018;2024-03-08T11:33:39;25.67;;;14.63;;
47599;SDS011;33323;52.124;6.018;2024-03-08T11:36:11;26.65;;;15.43;;
47599;SDS011;33323;52.124;6.018;2024-03-08T11:38:43;23.30;;;14.30;;
47599;SDS011;33323;52.124;6.018;2024-03-08T11:41:19;24.08;;;14.88;;
47599;SDS011;33323;52.124;6.018;2024-03-08T11:43:48;25.42;;;14.07;;
47599;SDS011;33323;52.124;6.018;2024-03-08T11:46:17;24.13;;;13.18;;
47599;SDS011;33323;52.124;6.018;2024-03-08T11:48:47;25.25;;;14.48;;
47599;SDS011;33323;52.124;6.018;2024-03-08T11:51:15;25.85;;;14.77;;
47599;SDS011;33323;52.124;6.018;2024-03-08T11:53:45;22.33;;;14.50;;
47599;SDS011;33323;52.124;6.018;2024-03-08T11:56:15;22.77;;;13.68;;
47599;SDS011;33323;52.124;6.018;2024-03-08T11:58:52;19.15;;;12.50;;
47599;SDS011;33323;52.124;6.018;2024-03-08T12:01:24;22.80;;;13.88;;
47599;SDS011;33323;52.124;6.018;2024-03-08T12:03:55;24.05;;;14.07;;
47599;SDS011;33323;52.124;6.018;2024-03-08T12:06:27;20.85;;;12.85;;
47599;SDS011;33323;52.124;6.018;2024-03-08T12:09:08;21.60;;;12.75;;
47599;SDS011;33323;52.124;6.018;2024-03-08T12:11:37;23.20;;;12.27;;
47599;SDS011;33323;52.124;6.018;2024-03-08T12:14:04;23.10;;;11.85;;
47599;SDS011;33323;52.124;6.018;2024-03-08T12:16:32;17.88;;;11.20;;
47599;SDS011;33323;52.124;6.018;2024-03-08T12:19:00;22.00;;;13.15;;
47599;SDS011;33323;52.124;6.018;2024-03-08T12:21:31;21.60;;;13.15;;
47599;SDS011;33323;52.124;6.018;2024-03-08T12:24:06;22.23;;;14.18;;
47599;SDS011;33323;52.124;6.018;2024-03-08T12:26:36;24.63;;;13.93;;
47599;SDS011;33323;52.124;6.018;2024-03-08T12:29:24;23.10;;;12.77;;
47599;SDS011;33323;52.124;6.018;2024-03-08T12:31:54;25.75;;;13.90;;
47599;SDS011;33323;52.124;6.018;2024-03-08T12:34:31;22.52;;;12.20;;
47599;SDS011;33323;52.124;6.018;2024-03-08T12:36:59;18.80;;;11.23;;
47599;SDS011;33323;52.124;6.018;2024-03-08T12:39:27;30.73;;;15.77;;
47599;SDS011;33323;52.124;6.018;2024-03-08T12:41:56;20.98;;;12.50;;
47599;SDS011;33323;52.124;6.018;2024-03-08T12:44:24;19.35;;;12.13;;
47599;SDS011;33323;52.124;6.018;2024-03-08T12:46:52;20.70;;;13.00;;
47599;SDS011;33323;52.124;6.018;2024-03-08T12:49:20;27.85;;;14.35;;
47599;SDS011;33323;52.124;6.018;2024-03-08T12:51:49;19.90;;;12.48;;
47599;SDS011;33323;52.124;6.018;2024-03-08T12:54:19;20.05;;;13.13;;
47599;SDS011;33323;52.124;6.018;2024-03-08T12:56:50;19.92;;;12.35;;
47599;SDS011;33323;52.124;6.018;2024-03-08T12:59:20;21.35;;;12.82;;
47599;SDS011;33323;52.124;6.018;2024-03-08T13:01:48;22.23;;;12.68;;
47599;SDS011;33323;52.124;6.018;2024-03-08T13:04:26;19.50;;;12.68;;
47599;SDS011;33323;52.124;6.018;2024-03-08T13:06:54;24.33;;;13.82;;
47599;SDS011;33323;52.124;6.018;2024-03-08T13:09:28;22.45;;;14.02;;
47599;SDS011;33323;52.124;6.018;2024-03-08T13:11:55;23.00;;;13.18;;
47599;SDS011;33323;52.124;6.018;2024-03-08T13:14:25;21.33;;;13.40;;
47599;SDS011;33323;52.124;6.018;2024-03-08T13:16:53;19.77;;;13.18;;
47599;SDS011;33323;52.124;6.018;2024-03-08T13:19:22;23.25;;;13.27;;
47599;SDS011;33323;52.124;6.018;2024-03-08T13:21:50;23.48;;;12.95;;
47599;SDS011;33323;52.124;6.018;2024-03-08T13:24:18;19.20;;;11.38;;
47599;SDS011;33323;52.124;6.018;2024-03-08T13:26:47;21.90;;;11.98;;
47599;SDS011;33323;52.124;6.018;2024-03-08T13:29:14;19.90;;;13.32;;
47599;SDS011;33323;52.124;6.018;2024-03-08T13:31:42;19.17;;;11.50;;
47599;SDS011;33323;52.124;6.018;2024-03-08T13:34:09;20.20;;;12.10;;
47599;SDS011;33323;52.124;6.018;2024-03-08T13:36:38;21.38;;;11.80;;
47599;SDS011;33323;52.124;6.018;2024-03-08T13:39:10;19.33;;;11.13;;
47599;SDS011;33323;52.124;6.018;2024-03-08T13:41:44;20.35;;;11.40;;
47599;SDS011;33323;52.124;6.018;2024-03-08T13:44:11;19.73;;;12.75;;
47599;SDS011;33323;52.124;6.018;2024-03-08T13:46:39;20.75;;;12.30;;
47599;SDS011;33323;52.124;6.018;2024-03-08T13:49:06;17.42;;;11.35;;
47599;SDS011;33323;52.124;6.018;2024-03-08T13:51:35;16.40;;;10.93;;
47599;SDS011;33323;52.124;6.018;2024-03-08T13:54:02;21.20;;;12.10;;
47599;SDS011;33323;52.124;6.018;2024-03-08T13:56:33;19.55;;;11.70;;
47599;SDS011;33323;52.124;6.018;2024-03-08T13:59:00;18.38;;;12.27;;
47599;SDS011;33323;52.124;6.018;2024-03-08T14:01:29;19.10;;;12.02;;
47599;SDS011;33323;52.124;6.018;2024-03-08T14:03:57;20.98;;;11.75;;
47599;SDS011;33323;52.124;6.018;2024-03-08T14:06:24;20.27;;;11.95;;
47599;SDS011;33323;52.124;6.018;2024-03-08T14:08:52;22.83;;;12.55;;
47599;SDS011;33323;52.124;6.018;2024-03-08T14:11:19;22.45;;;13.40;;
47599;SDS011;33323;52.124;6.018;2024-03-08T14:13:47;22.10;;;12.00;;
47599;SDS011;33323;52.124;6.018;2024-03-08T14:16:14;20.75;;;13.02;;
47599;SDS011;33323;52.124;6.018;2024-03-08T14:18:42;20.38;;;11.50;;
47599;SDS011;33323;52.124;6.018;2024-03-08T14:21:09;20.35;;;11.95;;
47599;SDS011;33323;52.124;6.018;2024-03-08T14:23:37;19.27;;;12.70;;
47599;SDS011;33323;52.124;6.018;2024-03-08T14:26:04;19.85;;;11.95;;
47599;SDS011;33323;52.124;6.018;2024-03-08T14:28:34;20.70;;;12.10;;
47599;SDS011;33323;52.124;6.018;2024-03-08T14:31:01;19.65;;;11.38;;
47599;SDS011;33323;52.124;6.018;2024-03-08T14:33:33;17.00;;;11.48;;
47599;SDS011;33323;52.124;6.018;2024-03-08T14:36:00;15.82;;;11.07;;